Latest Weather Observations for Yamba

IDN60801

Issued at 7:32 am EST Sunday 24 September 2017 (issued every 30 minutes, with the page automatically refreshed every 10 minutes)

About weather observations | Map of weather stations | Latest weather observations for NSW | Other Formats
Station Details ID: 058012 Name: YAMBA PILOT STATION Lat: -29.43 Lon: 153.36 Height: 27.4 m
Data from the previous 72 hours. | See also: Recent months at Yamba
Date/Time
EST
Temp
°C
App
Temp
°C
Dew
Point
°C
Rel
Hum
%
Delta-T
°C
Wind Press
QNH
hPa
Press
MSL
hPa
Rain since
9am
mm
Dir  Spd
km/h
Gust
km/h
Spd
kts
Gust
kts
24/07:30am 22.2 24.6 19.7 86 1.6 N 6 11 3 6 1010.5 1010.5 0.0
24/07:00am 20.6 21.8 18.2 86 1.5 N 9 15 5 8 1010.1 1010.1 0.0
24/06:30am 19.3 20.8 19.0 98 0.2 N 9 15 5 8 1009.7 1009.7 0.0
24/06:00am 18.9 20.6 18.6 98 0.2 N 7 11 4 6 1009.5 1009.5 0.0
24/05:30am 19.0 20.8 18.7 98 0.2 NNE 7 11 4 6 1009.2 1009.2 0.0
24/05:00am 18.6 20.2 18.3 98 0.2 N 7 11 4 6 1009.3 1009.3 0.0
24/04:30am 18.8 20.5 18.5 98 0.2 N 7 11 4 6 1009.0 1009.0 0.0
24/04:00am 19.0 20.4 18.7 98 0.2 N 9 13 5 7 1008.8 1008.8 0.0
24/03:30am 18.9 20.6 18.6 98 0.2 N 7 13 4 7 1008.8 1008.8 0.0
24/03:00am 19.0 20.4 18.7 98 0.2 N 9 15 5 8 1008.8 1008.8 0.0
24/02:30am 19.2 20.3 18.9 98 0.2 N 11 17 6 9 1008.5 1008.5 0.0
24/02:00am 19.1 20.2 18.8 98 0.2 N 11 19 6 10 1008.8 1008.8 0.0
24/01:30am 19.2 20.7 18.9 98 0.2 N 9 19 5 10 1009.2 1009.2 0.0
24/01:00am 19.4 21.0 19.1 98 0.2 N 9 15 5 8 1009.7 1009.7 0.0
24/12:30am 19.5 21.1 19.2 98 0.2 N 9 17 5 9 1009.9 1009.9 0.0
24/12:00am 19.6 21.3 19.3 98 0.2 N 9 17 5 9 1010.2 1010.2 0.0
 
Date/Time
EST
Temp
°C
App
Temp
°C
Dew
Point
°C
Rel
Hum
%
Delta-T
°C
Wind Press
QNH
hPa
Press
MSL
hPa
Rain since
9am
mm
Dir  Spd
km/h
Gust
km/h
Spd
kts
Gust
kts
23/11:30pm 19.6 21.3 19.3 98 0.2 N 9 15 5 8 1010.4 1010.4 0.0
23/11:00pm 19.7 21.4 19.4 98 0.2 N 9 15 5 8 1010.3 1010.3 0.0
23/10:30pm 20.0 21.5 19.7 98 0.2 N 11 15 6 8 1010.5 1010.5 0.0
23/10:00pm 20.1 21.3 19.8 98 0.2 NNW 13 20 7 11 1010.5 1010.5 0.0
23/09:30pm 20.3 21.5 20.0 98 0.2 N 13 20 7 11 1010.8 1010.8 0.0
23/09:00pm 20.3 21.9 20.0 98 0.2 NNW 11 19 6 10 1010.6 1010.6 0.0
23/08:30pm 20.3 21.9 20.0 98 0.2 N 11 20 6 11 1010.4 1010.4 0.0
23/08:00pm 20.5 22.2 20.2 98 0.2 N 11 20 6 11 1010.5 1010.5 0.0
23/07:30pm 20.6 22.0 20.3 98 0.2 N 13 28 7 15 1010.3 1010.3 0.0
23/07:00pm 20.8 22.2 20.3 97 0.3 N 13 22 7 12 1009.8 1009.8 0.0
23/06:30pm 20.9 22.2 20.2 96 0.4 N 13 24 7 13 1009.6 1009.6 0.0
23/06:00pm 21.0 22.2 19.8 93 0.8 N 13 20 7 11 1009.6 1009.6 0.0
23/05:30pm 21.5 22.8 19.4 88 1.3 N 11 20 6 11 1009.4 1009.4 0.0
23/05:00pm 22.3 23.1 19.1 82 2.0 N 13 20 7 11 1009.4 1009.4 0.0
23/04:30pm 23.3 24.1 19.0 77 2.7 N 13 22 7 12 1009.1 1009.1 0.0
23/04:00pm 24.3 24.7 18.9 72 3.4 N 15 28 8 15 1009.1 1009.1 0.0
23/03:30pm 25.0 25.0 18.9 69 3.9 N 17 28 9 15 1009.3 1009.3 0.0
23/03:00pm 25.5 25.8 18.7 66 4.3 N 15 22 8 12 1009.4 1009.4 0.0
23/02:30pm 26.1 26.8 18.8 64 4.7 N 13 22 7 12 1009.7 1009.7 0.0
23/02:00pm 26.7 26.6 18.8 62 5.1 NNE 17 32 9 17 1010.1 1010.1 0.0
23/01:30pm 26.8 27.2 18.9 62 5.1 N 15 24 8 13 1010.5 1010.5 0.0
23/01:00pm 26.0 26.4 18.2 62 4.9 N 13 22 7 12 1011.0 1011.0 0.0
23/12:30pm 25.8 26.5 18.0 62 4.9 N 11 20 6 11 1011.5 1011.5 0.0
23/12:00pm 26.4 27.6 18.3 61 5.1 N 9 19 5 10 1011.9 1011.9 0.0
23/11:30am 26.2 27.0 17.3 58 5.6 N 9 19 5 10 1012.5 1012.4 0.0
23/11:00am 26.2 27.5 17.6 59 5.4 N 7 13 4 7 1012.9 1012.8 0.0
23/10:30am 25.8 26.4 16.9 58 5.5 NNE 9 15 5 8 1013.4 1013.3 0.0
23/10:00am 26.8 27.5 17.0 55 6.1 N 9 15 5 8 1013.8 1013.7 0.0
23/09:30am 27.5 26.2 13.8 43 8.1 NNW 13 17 7 9 1014.2 1014.1 0.0
23/09:00am 25.9 24.4 14.1 48 7.0 NNW 15 19 8 10 1014.3 1014.2 0.0
23/08:30am 25.8 24.7 14.3 49 6.8 NNW 13 19 7 10 1014.5 1014.4 0.0
23/08:00am 23.7 22.1 13.8 53 5.8 NNW 15 22 8 12 1014.6 1014.5 0.0
23/07:30am 22.1 21.4 14.2 61 4.6 NNW 11 15 6 8 1014.6 1014.5 0.0
23/07:00am 20.1 19.7 14.0 68 3.5 NNW 9 13 5 7 1014.3 1014.2 0.0
23/06:30am 18.5 18.0 13.8 74 2.7 NNW 9 11 5 6 1014.1 1014.0 0.0
23/06:00am 17.8 17.9 14.5 81 1.9 N 7 9 4 5 1013.9 1013.8 0.0
23/05:30am 18.1 17.7 14.2 78 2.2 NW 9 11 5 6 1013.8 1013.7 0.0
23/05:00am 18.0 17.2 14.1 78 2.2 NNW 11 13 6 7 1013.7 1013.6 0.0
23/04:30am 18.5 18.7 14.8 79 2.2 NNW 7 11 4 6 1013.6 1013.5 0.0
23/04:00am 20.2 19.0 14.1 68 3.5 NW 13 20 7 11 1013.2 1013.1 0.0
23/03:30am 19.4 18.5 12.7 65 3.8 WNW 9 13 5 7 1013.2 1013.1 0.0
23/03:00am 19.5 19.4 13.9 70 3.2 WNW 7 11 4 6 1013.2 1013.1 0.0
23/02:30am 20.4 19.2 14.1 67 3.7 NW 13 19 7 10 1013.3 1013.2 0.0
23/02:00am 19.6 18.6 13.3 67 3.6 NW 11 20 6 11 1013.6 1013.5 0.0
23/01:30am 19.5 19.2 13.4 68 3.5 NW 7 13 4 7 1014.1 1014.0 0.0
23/01:00am 20.3 20.4 14.4 69 3.4 NNW 7 13 4 7 1014.3 1014.2 0.0
23/12:30am 21.5 18.9 12.1 55 5.3 WNW 17 22 9 12 1014.3 1014.2 0.0
23/12:00am 21.3 18.7 11.9 55 5.3 WNW 17 24 9 13 1014.3 1014.2 0.0
 
Date/Time
EST
Temp
°C
App
Temp
°C
Dew
Point
°C
Rel
Hum
%
Delta-T
°C
Wind Press
QNH
hPa
Press
MSL
hPa
Rain since
9am
mm
Dir  Spd
km/h
Gust
km/h
Spd
kts
Gust
kts
22/11:30pm 21.2 19.5 13.6 62 4.4 NW 15 22 8 12 1014.4 1014.3 0.0
22/11:00pm 19.6 19.1 14.8 74 2.8 NW 11 15 6 8 1014.4 1014.3 0.0
22/10:30pm 19.6 20.9 17.2 86 1.5 N 6 13 3 7 1014.4 1014.3 0.0
22/10:00pm 19.6 22.5 18.3 92 0.8 CALM 0 0 0 0 1014.4 1014.3 0.0
22/09:30pm 19.8 21.8 19.1 96 0.4 NNW 7 11 4 6 1014.0 1013.9 0.0
22/09:00pm 20.1 22.1 19.1 94 0.6 NE 7 9 4 5 1014.0 1013.9 0.0
22/08:30pm 20.4 21.7 19.2 93 0.8 NW 11 13 6 7 1013.9 1013.8 0.0
22/08:00pm 20.1 22.3 19.3 95 0.5 N 6 7 3 4 1013.4 1013.3 0.0
22/07:30pm 20.6 22.3 20.1 97 0.3 N 11 17 6 9 1013.0 1012.9 0.0
22/07:00pm 20.5 22.4 19.7 95 0.5 N 9 17 5 9 1012.8 1012.7 0.0
22/06:30pm 20.7 21.4 19.7 94 0.6 NNE 15 26 8 14 1012.7 1012.6 0.0
22/06:00pm 20.9 21.6 19.6 92 0.8 N 15 32 8 17 1012.1 1012.1 0.0
22/05:30pm 21.4 22.2 19.1 87 1.5 N 13 30 7 16 1012.0 1012.0 0.0
22/05:00pm 21.9 21.6 19.1 84 1.8 N 19 37 10 20 1011.9 1011.9 0.0
22/04:30pm 22.6 22.2 18.8 79 2.4 N 19 30 10 16 1012.0 1012.0 0.0
22/04:00pm 22.0 20.8 18.4 80 2.3 NNE 22 37 12 20 1011.9 1011.9 0.0
22/03:30pm 23.0 22.2 18.5 76 2.8 NNE 20 33 11 18 1012.1 1012.1 0.0
22/03:00pm 24.2 23.0 18.4 70 3.7 NNE 22 35 12 19 1012.1 1012.1 0.0
22/02:30pm 24.9 24.0 18.1 66 4.3 NNE 20 35 11 19 1012.3 1012.3 0.0
22/02:00pm 25.5 24.7 17.9 63 4.8 NNE 19 30 10 16 1012.9 1012.8 0.0
22/01:30pm 26.0 25.8 18.4 63 4.8 NNE 17 28 9 15 1013.3 1013.2 0.0
22/01:00pm 25.5 26.2 18.9 67 4.2 NNE 13 20 7 11 1013.7 1013.6 0.0
22/12:30pm 24.7 25.7 18.6 69 3.9 NNE 11 19 6 10 1014.3 1014.2 0.0
22/12:00pm 24.6 25.9 19.4 73 3.3 NE 11 19 6 10 1015.0 1014.9 0.0
22/11:30am 24.3 25.4 18.0 68 4.0 NNE 9 15 5 8 1015.6 1015.5 0.0
22/11:00am 24.2 25.5 18.4 70 3.7 NNE 9 15 5 8 1016.2 1016.1 0.0
22/10:30am 22.8 23.2 18.1 75 2.9 ENE 13 19 7 10 1016.5 1016.4 0.0
22/10:00am 23.0 24.0 17.7 72 3.3 ENE 9 17 5 9 1016.8 1016.7 0.0
22/09:30am 23.0 23.9 16.5 67 4.0 NNE 7 11 4 6 1017.3 1017.2 0.0
22/09:00am 24.1 25.6 19.0 73 3.2 NW 9 11 5 6 1017.6 1017.5 0.0
22/08:30am 21.7 23.1 17.9 79 2.4 NW 7 11 4 6 1017.8 1017.7 0.0
22/08:00am 20.1 21.5 18.6 91 0.9 NW 9 11 5 6 1017.8 1017.7 0.0
22/07:30am 18.9 20.6 18.6 98 0.2 NW 7 11 4 6 1017.9 1017.8 0.0
22/07:00am 17.6 18.8 17.3 98 0.2 WNW 7 9 4 5 1017.7 1017.6 0.0
22/06:30am 16.7 17.5 16.4 98 0.2 NW 7 11 4 6 1017.5 1017.4 0.0
22/06:00am 16.3 17.0 16.0 98 0.2 NW 7 9 4 5 1017.3 1017.2 0.0
22/05:30am 16.2 16.8 15.9 98 0.2 WNW 7 11 4 6 1017.0 1016.9 0.0
22/05:00am 16.3 17.0 16.0 98 0.2 NW 7 13 4 7 1016.8 1016.7 0.0
22/04:30am 16.3 16.6 16.0 98 0.2 WNW 9 11 5 6 1016.6 1016.5 0.0
22/04:00am 16.5 16.9 16.2 98 0.2 NNW 9 11 5 6 1016.3 1016.2 0.0
22/03:30am 16.5 17.2 16.2 98 0.2 NNW 7 11 4 6 1016.2 1016.1 0.0
22/03:00am 16.9 17.8 16.6 98 0.2 N 7 11 4 6 1016.2 1016.1 0.0
22/02:30am 17.3 18.4 17.0 98 0.2 N 7 11 4 6 1016.4 1016.3 0.0
22/02:00am 17.4 18.5 17.1 98 0.2 N 7 11 4 6 1016.6 1016.5 0.0
22/01:30am 17.5 18.2 17.0 97 0.3 N 9 15 5 8 1016.8 1016.7 0.0
22/01:00am 17.8 18.6 17.3 97 0.3 N 9 15 5 8 1017.0 1016.9 0.0
22/12:30am 17.9 18.3 17.3 96 0.4 N 11 17 6 9 1017.1 1017.0 0.0
22/12:00am 18.0 18.4 17.2 95 0.5 N 11 20 6 11 1017.2 1017.1 0.0
 
Date/Time
EST
Temp
°C
App
Temp
°C
Dew
Point
°C
Rel
Hum
%
Delta-T
°C
Wind Press
QNH
hPa
Press
MSL
hPa
Rain since
9am
mm
Dir  Spd
km/h
Gust
km/h
Spd
kts
Gust
kts
21/11:30pm 18.0 18.6 16.9 93 0.7 N 9 17 5 9 1017.3 1017.2 0.0
21/11:00pm 18.0 18.5 16.5 91 0.9 N 9 15 5 8 1017.2 1017.1 0.0
21/10:30pm 18.4 18.5 16.6 89 1.1 N 11 17 6 9 1017.2 1017.1 0.0
21/10:00pm 18.6 18.8 16.8 89 1.1 NNW 11 15 6 8 1017.3 1017.2 0.0
21/09:30pm 19.0 19.3 17.0 88 1.2 NNW 11 17 6 9 1017.2 1017.1 0.0
21/09:00pm 19.3 19.7 17.3 88 1.2 N 11 20 6 11 1017.0 1016.9 0.0
21/08:30pm 19.3 19.3 17.1 87 1.3 N 13 20 7 11 1016.7 1016.6 0.0
21/08:00pm 19.5 19.5 17.1 86 1.5 N 13 26 7 14 1016.5 1016.4 0.0
21/07:30pm 19.6 19.6 17.2 86 1.5 N 13 24 7 13 1016.2 1016.1 0.0
21/07:00pm 19.6 19.6 17.2 86 1.5 N 13 24 7 13 1015.9 1015.8 0.0
21/06:30pm 19.8 19.9 17.4 86 1.5 N 13 22 7 12 1015.6 1015.5 0.0
21/06:00pm 19.8 19.3 17.0 84 1.7 N 15 26 8 14 1015.3 1015.2 0.0
21/05:30pm 20.2 19.7 16.8 81 2.1 N 15 24 8 13 1015.1 1015.0 0.0
21/05:00pm 21.1 20.1 16.7 76 2.7 N 17 28 9 15 1014.9 1014.8 0.0
21/04:30pm 21.8 20.8 16.5 72 3.2 NNE 17 24 9 13 1014.9 1014.8 0.0
21/04:00pm 22.9 22.2 16.4 67 4.0 N 15 24 8 13 1014.9 1014.8 0.0
21/03:30pm 23.9 23.2 16.4 63 4.6 N 15 28 8 15 1015.1 1015.0 0.0
21/03:00pm 24.4 23.3 16.4 61 4.9 NNE 17 26 9 14 1015.1 1015.0 0.0
21/02:30pm 24.2 23.4 16.2 61 4.9 NNE 15 22 8 12 1015.2 1015.1 0.0
21/02:00pm 23.4 22.7 15.5 61 4.7 NNE 13 20 7 11 1015.5 1015.4 0.0
21/01:30pm 23.6 22.7 14.9 58 5.2 NNE 13 22 7 12 1015.8 1015.7 0.0
21/01:00pm 23.8 23.3 15.0 57 5.3 NE 11 20 6 11 1016.3 1016.2 0.0
21/12:30pm 24.3 23.7 13.5 51 6.3 NE 9 19 5 10 1016.8 1016.7 0.0
21/12:00pm 24.9 24.4 13.8 50 6.5 NNE 9 15 5 8 1017.3 1017.2 0.0
21/11:30am 25.4 25.1 14.5 51 6.5 N 9 13 5 7 1017.9 1017.8 0.0
21/11:00am 25.0 23.5 13.2 48 6.9 NW 13 20 7 11 1018.3 1018.2 0.0
21/10:30am 22.6 21.3 12.5 53 5.8 NNW 11 17 6 9 1018.8 1018.7 0.0
21/10:00am 23.2 21.8 13.4 54 5.7 NNW 13 20 7 11 1019.1 1019.0 0.0
21/09:30am 22.0 21.2 13.9 60 4.7 NW 11 17 6 9 1019.4 1019.3 0.0
21/09:00am 21.4 20.8 13.6 61 4.5 NW 9 13 5 7 1019.4 1019.3 0.0
21/08:30am 20.1 19.6 13.8 67 3.6 WNW 9 15 5 8 1019.6 1019.5 0.0
21/08:00am 18.0 17.3 13.3 74 2.6 W 9 15 5 8 1019.6 1019.5 0.0

Other Formats:

Comma delimited format used in spreadsheet applications
http://www.bom.gov.au/fwo/IDN60801/IDN60801.94589.axf

JavaScript Object Notation format (JSON) in row-major order
http://www.bom.gov.au/fwo/IDN60801/IDN60801.94589.json